sensor_id;sensor_type;location;lat;lon;timestamp;temperature;humidity
23609;DHT22;11982;50.810;4.442;2023-11-19T00:00:29;13.30;99.90
23609;DHT22;11982;50.810;4.442;2023-11-19T00:02:55;13.30;99.90
23609;DHT22;11982;50.810;4.442;2023-11-19T00:05:20;13.30;99.90
23609;DHT22;11982;50.810;4.442;2023-11-19T00:07:46;13.30;99.90
23609;DHT22;11982;50.810;4.442;2023-11-19T00:10:13;13.30;99.90
23609;DHT22;11982;50.810;4.442;2023-11-19T00:12:43;13.30;99.90
23609;DHT22;11982;50.810;4.442;2023-11-19T00:15:10;13.30;99.90
23609;DHT22;11982;50.810;4.442;2023-11-19T00:17:39;13.30;99.90
23609;DHT22;11982;50.810;4.442;2023-11-19T00:20:15;13.30;99.90
23609;DHT22;11982;50.810;4.442;2023-11-19T00:22:41;13.30;99.90
23609;DHT22;11982;50.810;4.442;2023-11-19T00:25:08;13.30;99.90
23609;DHT22;11982;50.810;4.442;2023-11-19T00:27:35;13.30;99.90
23609;DHT22;11982;50.810;4.442;2023-11-19T00:30:01;13.30;99.90
23609;DHT22;11982;50.810;4.442;2023-11-19T00:32:26;13.30;99.90
23609;DHT22;11982;50.810;4.442;2023-11-19T00:34:52;13.30;99.90
23609;DHT22;11982;50.810;4.442;2023-11-19T00:37:18;13.30;99.90
23609;DHT22;11982;50.810;4.442;2023-11-19T00:39:43;13.30;99.90
23609;DHT22;11982;50.810;4.442;2023-11-19T00:42:09;13.30;99.90
23609;DHT22;11982;50.810;4.442;2023-11-19T00:44:39;13.30;99.90
23609;DHT22;11982;50.810;4.442;2023-11-19T00:47:05;13.30;99.90
23609;DHT22;11982;50.810;4.442;2023-11-19T00:49:31;13.20;99.90
23609;DHT22;11982;50.810;4.442;2023-11-19T00:51:58;13.30;99.90
23609;DHT22;11982;50.810;4.442;2023-11-19T00:54:24;13.30;99.90
23609;DHT22;11982;50.810;4.442;2023-11-19T00:56:52;13.30;99.90
23609;DHT22;11982;50.810;4.442;2023-11-19T00:59:18;13.30;99.90
23609;DHT22;11982;50.810;4.442;2023-11-19T01:01:44;13.30;99.90
23609;DHT22;11982;50.810;4.442;2023-11-19T01:04:10;13.30;99.90
23609;DHT22;11982;50.810;4.442;2023-11-19T01:06:35;13.30;99.90
23609;DHT22;11982;50.810;4.442;2023-11-19T01:09:01;13.30;99.90
23609;DHT22;11982;50.810;4.442;2023-11-19T01:11:27;13.30;99.90
23609;DHT22;11982;50.810;4.442;2023-11-19T01:13:53;13.30;99.90
23609;DHT22;11982;50.810;4.442;2023-11-19T01:16:19;13.30;99.90
23609;DHT22;11982;50.810;4.442;2023-11-19T01:18:49;13.30;99.90
23609;DHT22;11982;50.810;4.442;2023-11-19T01:21:15;13.30;99.90
23609;DHT22;11982;50.810;4.442;2023-11-19T01:23:42;13.30;99.90
23609;DHT22;11982;50.810;4.442;2023-11-19T01:26:12;13.30;99.90
23609;DHT22;11982;50.810;4.442;2023-11-19T01:28:40;13.30;99.90
23609;DHT22;11982;50.810;4.442;2023-11-19T01:31:12;13.30;99.90
23609;DHT22;11982;50.810;4.442;2023-11-19T01:33:40;13.30;99.90
23609;DHT22;11982;50.810;4.442;2023-11-19T01:36:07;13.30;99.90
23609;DHT22;11982;50.810;4.442;2023-11-19T01:38:34;13.30;99.90
23609;DHT22;11982;50.810;4.442;2023-11-19T01:41:00;13.30;99.90
23609;DHT22;11982;50.810;4.442;2023-11-19T01:43:39;13.30;99.90
23609;DHT22;11982;50.810;4.442;2023-11-19T01:46:07;13.30;99.90
23609;DHT22;11982;50.810;4.442;2023-11-19T01:48:38;13.20;99.90
23609;DHT22;11982;50.810;4.442;2023-11-19T01:51:07;13.20;99.90
23609;DHT22;11982;50.810;4.442;2023-11-19T01:53:35;13.20;99.90
23609;DHT22;11982;50.810;4.442;2023-11-19T01:56:02;13.10;99.90
23609;DHT22;11982;50.810;4.442;2023-11-19T01:58:29;13.20;99.90
23609;DHT22;11982;50.810;4.442;2023-11-19T02:00:56;13.20;99.90
23609;DHT22;11982;50.810;4.442;2023-11-19T02:03:23;13.20;99.90
23609;DHT22;11982;50.810;4.442;2023-11-19T02:05:51;13.10;99.90
23609;DHT22;11982;50.810;4.442;2023-11-19T02:08:18;13.20;99.90
23609;DHT22;11982;50.810;4.442;2023-11-19T02:10:45;13.20;99.90
23609;DHT22;11982;50.810;4.442;2023-11-19T02:13:11;13.30;99.90
23609;DHT22;11982;50.810;4.442;2023-11-19T02:15:40;13.20;99.90
23609;DHT22;11982;50.810;4.442;2023-11-19T02:18:23;13.10;99.90
23609;DHT22;11982;50.810;4.442;2023-11-19T02:20:50;13.10;99.90
23609;DHT22;11982;50.810;4.442;2023-11-19T02:23:16;13.00;99.90
23609;DHT22;11982;50.810;4.442;2023-11-19T02:25:45;13.00;99.90
23609;DHT22;11982;50.810;4.442;2023-11-19T02:28:12;12.90;99.90
23609;DHT22;11982;50.810;4.442;2023-11-19T02:30:38;12.90;99.90
23609;DHT22;11982;50.810;4.442;2023-11-19T02:33:04;12.90;99.90
23609;DHT22;11982;50.810;4.442;2023-11-19T02:35:32;12.90;99.90
23609;DHT22;11982;50.810;4.442;2023-11-19T02:37:59;12.80;99.90
23609;DHT22;11982;50.810;4.442;2023-11-19T02:40:26;12.80;99.90
23609;DHT22;11982;50.810;4.442;2023-11-19T02:42:54;12.80;99.90
23609;DHT22;11982;50.810;4.442;2023-11-19T02:45:22;12.70;99.90
23609;DHT22;11982;50.810;4.442;2023-11-19T02:47:49;12.70;99.90
23609;DHT22;11982;50.810;4.442;2023-11-19T02:50:16;12.80;99.90
23609;DHT22;11982;50.810;4.442;2023-11-19T02:52:42;12.80;99.90
23609;DHT22;11982;50.810;4.442;2023-11-19T02:55:12;12.80;99.90
23609;DHT22;11982;50.810;4.442;2023-11-19T02:57:41;12.80;99.90
23609;DHT22;11982;50.810;4.442;2023-11-19T03:00:19;12.80;99.90
23609;DHT22;11982;50.810;4.442;2023-11-19T03:02:49;12.80;99.90
23609;DHT22;11982;50.810;4.442;2023-11-19T03:05:24;12.80;99.90
23609;DHT22;11982;50.810;4.442;2023-11-19T03:07:49;12.80;99.90
23609;DHT22;11982;50.810;4.442;2023-11-19T03:10:15;12.80;99.90
23609;DHT22;11982;50.810;4.442;2023-11-19T03:12:41;12.80;99.90
23609;DHT22;11982;50.810;4.442;2023-11-19T03:15:08;12.80;99.90
23609;DHT22;11982;50.810;4.442;2023-11-19T03:17:39;12.70;99.90
23609;DHT22;11982;50.810;4.442;2023-11-19T03:20:06;12.80;99.90
23609;DHT22;11982;50.810;4.442;2023-11-19T03:22:36;12.70;99.90
23609;DHT22;11982;50.810;4.442;2023-11-19T03:25:02;12.70;99.90
23609;DHT22;11982;50.810;4.442;2023-11-19T03:27:28;12.60;99.90
23609;DHT22;11982;50.810;4.442;2023-11-19T03:29:53;12.60;99.90
23609;DHT22;11982;50.810;4.442;2023-11-19T03:32:19;12.50;99.90
23609;DHT22;11982;50.810;4.442;2023-11-19T03:34:45;12.50;99.90
23609;DHT22;11982;50.810;4.442;2023-11-19T03:37:11;12.50;99.90
23609;DHT22;11982;50.810;4.442;2023-11-19T03:39:37;12.40;99.90
23609;DHT22;11982;50.810;4.442;2023-11-19T03:42:02;12.40;99.90
23609;DHT22;11982;50.810;4.442;2023-11-19T03:44:29;12.30;99.90
23609;DHT22;11982;50.810;4.442;2023-11-19T03:46:54;12.20;99.90
23609;DHT22;11982;50.810;4.442;2023-11-19T03:49:20;12.20;99.90
23609;DHT22;11982;50.810;4.442;2023-11-19T03:51:45;12.10;99.90
23609;DHT22;11982;50.810;4.442;2023-11-19T03:54:11;12.20;99.90
23609;DHT22;11982;50.810;4.442;2023-11-19T03:56:37;12.10;99.90
23609;DHT22;11982;50.810;4.442;2023-11-19T03:59:03;12.10;99.90
23609;DHT22;11982;50.810;4.442;2023-11-19T04:01:28;12.10;99.90
23609;DHT22;11982;50.810;4.442;2023-11-19T04:03:54;12.10;99.90
23609;DHT22;11982;50.810;4.442;2023-11-19T04:06:21;12.10;99.90
23609;DHT22;11982;50.810;4.442;2023-11-19T04:08:47;12.10;99.90
23609;DHT22;11982;50.810;4.442;2023-11-19T04:11:13;12.10;99.90
23609;DHT22;11982;50.810;4.442;2023-11-19T04:13:38;12.10;99.90
23609;DHT22;11982;50.810;4.442;2023-11-19T04:16:04;12.20;99.90
23609;DHT22;11982;50.810;4.442;2023-11-19T04:18:30;12.10;99.90
23609;DHT22;11982;50.810;4.442;2023-11-19T04:20:57;12.10;99.90
23609;DHT22;11982;50.810;4.442;2023-11-19T04:23:24;12.20;99.90
23609;DHT22;11982;50.810;4.442;2023-11-19T04:25:50;12.20;99.90
23609;DHT22;11982;50.810;4.442;2023-11-19T04:28:16;12.10;99.90
23609;DHT22;11982;50.810;4.442;2023-11-19T04:30:41;12.10;99.90
23609;DHT22;11982;50.810;4.442;2023-11-19T04:33:07;12.10;99.90
23609;DHT22;11982;50.810;4.442;2023-11-19T04:35:33;12.10;99.90
23609;DHT22;11982;50.810;4.442;2023-11-19T04:37:58;12.10;99.90
23609;DHT22;11982;50.810;4.442;2023-11-19T04:40:24;12.00;99.90
23609;DHT22;11982;50.810;4.442;2023-11-19T04:42:50;12.00;99.90
23609;DHT22;11982;50.810;4.442;2023-11-19T04:45:16;12.00;99.90
23609;DHT22;11982;50.810;4.442;2023-11-19T04:47:42;12.00;99.90
23609;DHT22;11982;50.810;4.442;2023-11-19T04:50:08;12.00;99.90
23609;DHT22;11982;50.810;4.442;2023-11-19T04:52:40;12.10;99.90
23609;DHT22;11982;50.810;4.442;2023-11-19T04:55:06;12.10;99.90
23609;DHT22;11982;50.810;4.442;2023-11-19T04:57:32;12.20;99.90
23609;DHT22;11982;50.810;4.442;2023-11-19T04:59:58;12.20;99.90
23609;DHT22;11982;50.810;4.442;2023-11-19T05:02:24;12.20;99.90
23609;DHT22;11982;50.810;4.442;2023-11-19T05:04:50;12.20;99.90
23609;DHT22;11982;50.810;4.442;2023-11-19T05:07:15;12.30;99.90
23609;DHT22;11982;50.810;4.442;2023-11-19T05:09:41;12.20;99.90
23609;DHT22;11982;50.810;4.442;2023-11-19T05:12:08;12.20;99.90
23609;DHT22;11982;50.810;4.442;2023-11-19T05:14:37;12.10;99.90
23609;DHT22;11982;50.810;4.442;2023-11-19T05:17:03;12.00;99.90
23609;DHT22;11982;50.810;4.442;2023-11-19T05:19:29;11.90;99.90
23609;DHT22;11982;50.810;4.442;2023-11-19T05:21:54;11.90;99.90
23609;DHT22;11982;50.810;4.442;2023-11-19T05:24:20;11.80;99.90
23609;DHT22;11982;50.810;4.442;2023-11-19T05:26:46;11.70;99.90
23609;DHT22;11982;50.810;4.442;2023-11-19T05:29:12;11.70;99.90
23609;DHT22;11982;50.810;4.442;2023-11-19T05:31:38;11.70;99.90
23609;DHT22;11982;50.810;4.442;2023-11-19T05:34:04;11.60;99.90
23609;DHT22;11982;50.810;4.442;2023-11-19T05:36:29;11.60;99.90
23609;DHT22;11982;50.810;4.442;2023-11-19T05:38:55;11.60;99.90
23609;DHT22;11982;50.810;4.442;2023-11-19T05:41:21;11.60;99.90
23609;DHT22;11982;50.810;4.442;2023-11-19T05:43:47;11.70;99.90
23609;DHT22;11982;50.810;4.442;2023-11-19T05:46:12;11.80;99.90
23609;DHT22;11982;50.810;4.442;2023-11-19T05:48:38;11.80;99.90
23609;DHT22;11982;50.810;4.442;2023-11-19T05:51:04;11.90;99.90
23609;DHT22;11982;50.810;4.442;2023-11-19T05:53:31;12.00;99.90
23609;DHT22;11982;50.810;4.442;2023-11-19T05:55:57;12.00;99.90
23609;DHT22;11982;50.810;4.442;2023-11-19T05:58:26;12.00;99.90
23609;DHT22;11982;50.810;4.442;2023-11-19T06:00:57;11.90;99.90
23609;DHT22;11982;50.810;4.442;2023-11-19T06:03:23;11.90;99.90
23609;DHT22;11982;50.810;4.442;2023-11-19T06:05:49;11.80;99.90
23609;DHT22;11982;50.810;4.442;2023-11-19T06:08:15;11.70;99.90
23609;DHT22;11982;50.810;4.442;2023-11-19T06:10:42;11.70;99.90
23609;DHT22;11982;50.810;4.442;2023-11-19T06:13:08;11.50;99.90
23609;DHT22;11982;50.810;4.442;2023-11-19T06:15:36;11.50;99.90
23609;DHT22;11982;50.810;4.442;2023-11-19T06:18:02;11.40;99.90
23609;DHT22;11982;50.810;4.442;2023-11-19T06:20:29;11.40;99.90
23609;DHT22;11982;50.810;4.442;2023-11-19T06:22:56;11.40;99.90
23609;DHT22;11982;50.810;4.442;2023-11-19T06:25:22;11.30;99.90
23609;DHT22;11982;50.810;4.442;2023-11-19T06:27:49;11.30;99.90
23609;DHT22;11982;50.810;4.442;2023-11-19T06:30:15;11.30;99.90
23609;DHT22;11982;50.810;4.442;2023-11-19T06:32:41;11.20;99.90
23609;DHT22;11982;50.810;4.442;2023-11-19T06:35:08;11.20;99.90
23609;DHT22;11982;50.810;4.442;2023-11-19T06:37:41;11.20;99.90
23609;DHT22;11982;50.810;4.442;2023-11-19T06:40:07;11.10;99.90
23609;DHT22;11982;50.810;4.442;2023-11-19T06:42:35;11.10;99.90
23609;DHT22;11982;50.810;4.442;2023-11-19T06:45:01;11.10;99.90
23609;DHT22;11982;50.810;4.442;2023-11-19T06:47:27;11.20;99.90
23609;DHT22;11982;50.810;4.442;2023-11-19T06:49:54;11.10;99.90
23609;DHT22;11982;50.810;4.442;2023-11-19T06:52:20;11.20;99.90
23609;DHT22;11982;50.810;4.442;2023-11-19T06:54:46;11.20;99.90
23609;DHT22;11982;50.810;4.442;2023-11-19T06:57:12;11.20;99.90
23609;DHT22;11982;50.810;4.442;2023-11-19T06:59:38;11.10;99.90
23609;DHT22;11982;50.810;4.442;2023-11-19T07:02:04;11.10;99.90
23609;DHT22;11982;50.810;4.442;2023-11-19T07:04:33;11.10;99.90
23609;DHT22;11982;50.810;4.442;2023-11-19T07:06:59;11.10;99.90
23609;DHT22;11982;50.810;4.442;2023-11-19T07:09:27;11.00;99.90
23609;DHT22;11982;50.810;4.442;2023-11-19T07:11:53;11.00;99.90
23609;DHT22;11982;50.810;4.442;2023-11-19T07:14:19;11.10;99.90
23609;DHT22;11982;50.810;4.442;2023-11-19T07:16:44;11.10;99.90
23609;DHT22;11982;50.810;4.442;2023-11-19T07:19:12;11.10;99.90
23609;DHT22;11982;50.810;4.442;2023-11-19T07:21:40;11.20;99.90
23609;DHT22;11982;50.810;4.442;2023-11-19T07:24:10;11.20;99.90
23609;DHT22;11982;50.810;4.442;2023-11-19T07:26:36;11.20;99.90
23609;DHT22;11982;50.810;4.442;2023-11-19T07:29:03;11.20;99.90
23609;DHT22;11982;50.810;4.442;2023-11-19T07:31:28;11.30;99.90
23609;DHT22;11982;50.810;4.442;2023-11-19T07:33:54;11.30;99.90
23609;DHT22;11982;50.810;4.442;2023-11-19T07:36:20;11.30;99.90
23609;DHT22;11982;50.810;4.442;2023-11-19T07:38:46;11.30;99.90
23609;DHT22;11982;50.810;4.442;2023-11-19T07:41:13;11.30;99.90
23609;DHT22;11982;50.810;4.442;2023-11-19T07:43:45;11.30;99.90
23609;DHT22;11982;50.810;4.442;2023-11-19T07:46:13;11.20;99.90
23609;DHT22;11982;50.810;4.442;2023-11-19T07:48:39;11.20;99.90
23609;DHT22;11982;50.810;4.442;2023-11-19T07:51:05;11.30;99.90
23609;DHT22;11982;50.810;4.442;2023-11-19T07:53:31;11.20;99.90
23609;DHT22;11982;50.810;4.442;2023-11-19T07:55:58;11.30;99.90
23609;DHT22;11982;50.810;4.442;2023-11-19T07:58:25;11.30;99.90
23609;DHT22;11982;50.810;4.442;2023-11-19T08:00:51;11.40;99.90
23609;DHT22;11982;50.810;4.442;2023-11-19T08:03:17;11.50;99.90
23609;DHT22;11982;50.810;4.442;2023-11-19T08:05:44;11.60;99.90
23609;DHT22;11982;50.810;4.442;2023-11-19T08:08:11;11.60;99.90
23609;DHT22;11982;50.810;4.442;2023-11-19T08:10:37;11.70;99.90
23609;DHT22;11982;50.810;4.442;2023-11-19T08:13:03;11.70;99.90
23609;DHT22;11982;50.810;4.442;2023-11-19T08:18:29;11.60;99.90
23609;DHT22;11982;50.810;4.442;2023-11-19T08:20:54;11.70;99.90
23609;DHT22;11982;50.810;4.442;2023-11-19T08:23:21;11.70;99.90
23609;DHT22;11982;50.810;4.442;2023-11-19T08:25:49;11.70;99.90
23609;DHT22;11982;50.810;4.442;2023-11-19T08:28:15;11.70;99.90
23609;DHT22;11982;50.810;4.442;2023-11-19T08:30:40;11.70;99.90
23609;DHT22;11982;50.810;4.442;2023-11-19T08:33:06;11.70;99.90
23609;DHT22;11982;50.810;4.442;2023-11-19T08:35:32;11.80;99.90
23609;DHT22;11982;50.810;4.442;2023-11-19T08:37:58;12.00;99.90
23609;DHT22;11982;50.810;4.442;2023-11-19T08:40:24;12.20;99.90
23609;DHT22;11982;50.810;4.442;2023-11-19T08:42:51;12.30;99.90
23609;DHT22;11982;50.810;4.442;2023-11-19T08:45:17;12.30;99.90
23609;DHT22;11982;50.810;4.442;2023-11-19T08:47:43;12.20;99.90
23609;DHT22;11982;50.810;4.442;2023-11-19T08:50:11;12.00;99.90
23609;DHT22;11982;50.810;4.442;2023-11-19T08:52:37;11.90;99.90
23609;DHT22;11982;50.810;4.442;2023-11-19T08:55:02;11.90;99.90
23609;DHT22;11982;50.810;4.442;2023-11-19T08:57:30;11.90;99.90
23609;DHT22;11982;50.810;4.442;2023-11-19T08:59:56;11.90;99.90
23609;DHT22;11982;50.810;4.442;2023-11-19T09:02:22;12.00;99.90
23609;DHT22;11982;50.810;4.442;2023-11-19T09:04:47;12.10;99.90
23609;DHT22;11982;50.810;4.442;2023-11-19T09:07:13;12.20;99.90
23609;DHT22;11982;50.810;4.442;2023-11-19T09:09:39;12.30;99.90
23609;DHT22;11982;50.810;4.442;2023-11-19T09:12:05;12.40;99.90
23609;DHT22;11982;50.810;4.442;2023-11-19T09:14:30;12.60;99.90
23609;DHT22;11982;50.810;4.442;2023-11-19T09:16:57;12.70;99.90
23609;DHT22;11982;50.810;4.442;2023-11-19T09:19:24;12.80;99.90
23609;DHT22;11982;50.810;4.442;2023-11-19T09:21:49;12.80;99.90
23609;DHT22;11982;50.810;4.442;2023-11-19T09:24:15;12.70;99.90
23609;DHT22;11982;50.810;4.442;2023-11-19T09:26:41;12.70;99.90
23609;DHT22;11982;50.810;4.442;2023-11-19T09:29:10;12.70;99.90
23609;DHT22;11982;50.810;4.442;2023-11-19T09:31:38;12.60;99.90
23609;DHT22;11982;50.810;4.442;2023-11-19T09:34:04;12.50;99.90
23609;DHT22;11982;50.810;4.442;2023-11-19T09:36:30;12.60;99.90
23609;DHT22;11982;50.810;4.442;2023-11-19T09:38:55;12.50;99.90
23609;DHT22;11982;50.810;4.442;2023-11-19T09:41:25;12.50;99.90
23609;DHT22;11982;50.810;4.442;2023-11-19T09:43:53;12.40;99.90
23609;DHT22;11982;50.810;4.442;2023-11-19T09:46:19;12.40;99.90
23609;DHT22;11982;50.810;4.442;2023-11-19T09:48:46;12.30;99.90
23609;DHT22;11982;50.810;4.442;2023-11-19T09:51:13;12.30;99.90
23609;DHT22;11982;50.810;4.442;2023-11-19T09:53:39;12.30;99.90
23609;DHT22;11982;50.810;4.442;2023-11-19T09:56:06;12.40;99.90
23609;DHT22;11982;50.810;4.442;2023-11-19T09:58:33;12.40;99.90
23609;DHT22;11982;50.810;4.442;2023-11-19T10:01:00;12.50;99.90
23609;DHT22;11982;50.810;4.442;2023-11-19T10:03:35;12.40;99.90
23609;DHT22;11982;50.810;4.442;2023-11-19T10:06:06;12.30;99.90
23609;DHT22;11982;50.810;4.442;2023-11-19T10:08:33;12.30;99.90
23609;DHT22;11982;50.810;4.442;2023-11-19T10:10:59;12.40;99.90
23609;DHT22;11982;50.810;4.442;2023-11-19T10:13:30;12.40;99.90
23609;DHT22;11982;50.810;4.442;2023-11-19T10:15:56;12.40;99.90
23609;DHT22;11982;50.810;4.442;2023-11-19T10:18:26;12.50;99.90
23609;DHT22;11982;50.810;4.442;2023-11-19T10:20:52;12.60;99.90
23609;DHT22;11982;50.810;4.442;2023-11-19T10:23:18;12.70;99.90
23609;DHT22;11982;50.810;4.442;2023-11-19T10:25:44;12.80;99.90
23609;DHT22;11982;50.810;4.442;2023-11-19T10:28:09;12.80;99.90
23609;DHT22;11982;50.810;4.442;2023-11-19T10:30:35;12.80;99.90
23609;DHT22;11982;50.810;4.442;2023-11-19T10:35:50;12.90;99.90
23609;DHT22;11982;50.810;4.442;2023-11-19T10:38:18;12.90;99.90
23609;DHT22;11982;50.810;4.442;2023-11-19T10:40:43;13.00;99.90
23609;DHT22;11982;50.810;4.442;2023-11-19T10:43:11;13.20;99.90
23609;DHT22;11982;50.810;4.442;2023-11-19T10:45:37;13.40;99.90
23609;DHT22;11982;50.810;4.442;2023-11-19T10:48:04;13.40;99.90
23609;DHT22;11982;50.810;4.442;2023-11-19T10:50:37;13.40;99.90
23609;DHT22;11982;50.810;4.442;2023-11-19T10:53:04;13.40;99.90
23609;DHT22;11982;50.810;4.442;2023-11-19T10:55:41;13.30;99.90
23609;DHT22;11982;50.810;4.442;2023-11-19T10:58:12;13.40;99.90
23609;DHT22;11982;50.810;4.442;2023-11-19T11:00:45;13.40;99.90
23609;DHT22;11982;50.810;4.442;2023-11-19T11:03:19;13.30;99.90
23609;DHT22;11982;50.810;4.442;2023-11-19T11:05:49;13.20;99.90
23609;DHT22;11982;50.810;4.442;2023-11-19T11:08:15;13.20;99.90
23609;DHT22;11982;50.810;4.442;2023-11-19T11:10:48;13.10;99.90
23609;DHT22;11982;50.810;4.442;2023-11-19T11:13:17;13.10;99.90
23609;DHT22;11982;50.810;4.442;2023-11-19T11:15:44;13.20;99.90
23609;DHT22;11982;50.810;4.442;2023-11-19T11:18:12;13.20;99.90
23609;DHT22;11982;50.810;4.442;2023-11-19T11:20:39;13.10;99.90
23609;DHT22;11982;50.810;4.442;2023-11-19T11:39:34;13.20;99.90
23609;DHT22;11982;50.810;4.442;2023-11-19T11:44:59;13.40;99.90
23609;DHT22;11982;50.810;4.442;2023-11-19T11:47:26;13.20;99.90
23609;DHT22;11982;50.810;4.442;2023-11-19T11:49:52;13.10;99.90
23609;DHT22;11982;50.810;4.442;2023-11-19T11:52:19;13.10;99.90
23609;DHT22;11982;50.810;4.442;2023-11-19T11:54:45;13.00;99.90
23609;DHT22;11982;50.810;4.442;2023-11-19T11:57:12;13.10;99.90
23609;DHT22;11982;50.810;4.442;2023-11-19T12:02:15;13.40;99.90
23609;DHT22;11982;50.810;4.442;2023-11-19T12:04:42;13.50;99.90
23609;DHT22;11982;50.810;4.442;2023-11-19T12:07:16;13.50;99.90
23609;DHT22;11982;50.810;4.442;2023-11-19T12:09:50;13.50;99.90
23609;DHT22;11982;50.810;4.442;2023-11-19T12:12:18;13.40;99.90
23609;DHT22;11982;50.810;4.442;2023-11-19T12:15:04;13.50;99.90
23609;DHT22;11982;50.810;4.442;2023-11-19T12:20:04;13.40;99.90
23609;DHT22;11982;50.810;4.442;2023-11-19T12:22:31;13.20;99.90
23609;DHT22;11982;50.810;4.442;2023-11-19T12:24:57;13.20;99.90
23609;DHT22;11982;50.810;4.442;2023-11-19T12:27:23;13.10;99.90
23609;DHT22;11982;50.810;4.442;2023-11-19T12:29:49;12.90;99.90
23609;DHT22;11982;50.810;4.442;2023-11-19T12:32:16;12.70;99.90
23609;DHT22;11982;50.810;4.442;2023-11-19T12:34:41;12.50;99.90
23609;DHT22;11982;50.810;4.442;2023-11-19T12:37:08;12.60;99.90
23609;DHT22;11982;50.810;4.442;2023-11-19T12:39:35;12.60;99.90
23609;DHT22;11982;50.810;4.442;2023-11-19T12:42:01;12.70;99.90
23609;DHT22;11982;50.810;4.442;2023-11-19T12:44:27;12.80;99.90
23609;DHT22;11982;50.810;4.442;2023-11-19T12:47:00;12.80;99.90
23609;DHT22;11982;50.810;4.442;2023-11-19T12:49:26;12.90;99.90
23609;DHT22;11982;50.810;4.442;2023-11-19T12:51:52;12.90;99.90
23609;DHT22;11982;50.810;4.442;2023-11-19T12:54:18;13.00;99.90
23609;DHT22;11982;50.810;4.442;2023-11-19T12:56:53;13.10;99.90
23609;DHT22;11982;50.810;4.442;2023-11-19T12:59:19;13.10;99.90
23609;DHT22;11982;50.810;4.442;2023-11-19T13:01:57;13.10;99.90
23609;DHT22;11982;50.810;4.442;2023-11-19T13:04:28;13.10;99.90
23609;DHT22;11982;50.810;4.442;2023-11-19T13:06:53;13.10;99.90
23609;DHT22;11982;50.810;4.442;2023-11-19T13:09:26;13.10;99.90
23609;DHT22;11982;50.810;4.442;2023-11-19T13:11:53;13.10;99.90
23609;DHT22;11982;50.810;4.442;2023-11-19T13:14:20;13.10;99.90
23609;DHT22;11982;50.810;4.442;2023-11-19T13:16:46;13.20;99.90
23609;DHT22;11982;50.810;4.442;2023-11-19T13:19:12;13.10;99.90
23609;DHT22;11982;50.810;4.442;2023-11-19T13:21:38;13.10;99.90
23609;DHT22;11982;50.810;4.442;2023-11-19T13:24:08;13.10;99.90
23609;DHT22;11982;50.810;4.442;2023-11-19T13:26:34;13.10;99.90
23609;DHT22;11982;50.810;4.442;2023-11-19T13:29:00;13.10;99.90
23609;DHT22;11982;50.810;4.442;2023-11-19T13:31:26;13.10;99.90
23609;DHT22;11982;50.810;4.442;2023-11-19T13:33:52;12.90;99.90
23609;DHT22;11982;50.810;4.442;2023-11-19T13:36:17;12.80;99.90
23609;DHT22;11982;50.810;4.442;2023-11-19T13:38:44;12.80;99.90
23609;DHT22;11982;50.810;4.442;2023-11-19T13:41:10;12.70;99.90
23609;DHT22;11982;50.810;4.442;2023-11-19T13:43:37;12.80;99.90
23609;DHT22;11982;50.810;4.442;2023-11-19T13:46:03;12.70;99.90
23609;DHT22;11982;50.810;4.442;2023-11-19T13:48:29;12.70;99.90
23609;DHT22;11982;50.810;4.442;2023-11-19T13:50:55;12.80;99.90
23609;DHT22;11982;50.810;4.442;2023-11-19T13:53:22;12.80;99.90
23609;DHT22;11982;50.810;4.442;2023-11-19T13:55:49;12.80;99.90
23609;DHT22;11982;50.810;4.442;2023-11-19T13:58:15;12.80;99.90
23609;DHT22;11982;50.810;4.442;2023-11-19T14:00:41;12.70;99.90
23609;DHT22;11982;50.810;4.442;2023-11-19T14:03:09;12.70;99.90
23609;DHT22;11982;50.810;4.442;2023-11-19T14:05:38;12.70;99.90
23609;DHT22;11982;50.810;4.442;2023-11-19T14:08:05;12.80;99.90
23609;DHT22;11982;50.810;4.442;2023-11-19T14:10:37;12.80;99.90
23609;DHT22;11982;50.810;4.442;2023-11-19T14:13:04;12.80;99.90
23609;DHT22;11982;50.810;4.442;2023-11-19T14:15:30;12.80;99.90
23609;DHT22;11982;50.810;4.442;2023-11-19T14:17:56;12.80;99.90
23609;DHT22;11982;50.810;4.442;2023-11-19T14:20:22;12.70;99.90
23609;DHT22;11982;50.810;4.442;2023-11-19T14:22:47;12.70;99.90
23609;DHT22;11982;50.810;4.442;2023-11-19T14:25:14;12.70;99.90
23609;DHT22;11982;50.810;4.442;2023-11-19T14:27:41;12.80;99.90
23609;DHT22;11982;50.810;4.442;2023-11-19T14:30:09;12.80;99.90
23609;DHT22;11982;50.810;4.442;2023-11-19T14:32:37;12.70;99.90
23609;DHT22;11982;50.810;4.442;2023-11-19T14:35:04;12.60;99.90
23609;DHT22;11982;50.810;4.442;2023-11-19T14:37:45;12.50;99.90
23609;DHT22;11982;50.810;4.442;2023-11-19T14:40:30;12.40;99.90
23609;DHT22;11982;50.810;4.442;2023-11-19T14:43:05;12.30;99.90
23609;DHT22;11982;50.810;4.442;2023-11-19T14:45:31;12.30;99.90
23609;DHT22;11982;50.810;4.442;2023-11-19T14:47:56;12.30;99.90
23609;DHT22;11982;50.810;4.442;2023-11-19T14:53:03;12.30;99.90
23609;DHT22;11982;50.810;4.442;2023-11-19T14:55:29;12.40;99.90
23609;DHT22;11982;50.810;4.442;2023-11-19T14:57:55;12.40;99.90
23609;DHT22;11982;50.810;4.442;2023-11-19T15:00:22;12.30;99.90
23609;DHT22;11982;50.810;4.442;2023-11-19T15:02:48;12.20;99.90
23609;DHT22;11982;50.810;4.442;2023-11-19T15:05:14;12.20;99.90
23609;DHT22;11982;50.810;4.442;2023-11-19T15:07:40;12.10;99.90
23609;DHT22;11982;50.810;4.442;2023-11-19T15:10:09;12.10;99.90
23609;DHT22;11982;50.810;4.442;2023-11-19T15:24:40;12.30;99.90
23609;DHT22;11982;50.810;4.442;2023-11-19T15:27:07;12.30;99.90
23609;DHT22;11982;50.810;4.442;2023-11-19T15:29:35;12.30;99.90
23609;DHT22;11982;50.810;4.442;2023-11-19T15:32:01;12.40;99.90
23609;DHT22;11982;50.810;4.442;2023-11-19T15:34:28;12.40;99.90
23609;DHT22;11982;50.810;4.442;2023-11-19T15:36:54;12.40;99.90
23609;DHT22;11982;50.810;4.442;2023-11-19T15:39:20;12.40;99.90
23609;DHT22;11982;50.810;4.442;2023-11-19T15:41:55;12.40;99.90
23609;DHT22;11982;50.810;4.442;2023-11-19T15:44:23;12.50;99.90
23609;DHT22;11982;50.810;4.442;2023-11-19T15:46:49;12.50;99.90
23609;DHT22;11982;50.810;4.442;2023-11-19T15:49:15;12.60;99.90
23609;DHT22;11982;50.810;4.442;2023-11-19T15:51:42;12.60;99.90
23609;DHT22;11982;50.810;4.442;2023-11-19T15:54:07;12.60;99.90
23609;DHT22;11982;50.810;4.442;2023-11-19T15:56:33;12.60;99.90
23609;DHT22;11982;50.810;4.442;2023-11-19T15:58:59;12.60;99.90
23609;DHT22;11982;50.810;4.442;2023-11-19T16:04:29;12.40;99.90
23609;DHT22;11982;50.810;4.442;2023-11-19T16:06:54;12.10;99.90
23609;DHT22;11982;50.810;4.442;2023-11-19T16:09:20;11.80;99.90
23609;DHT22;11982;50.810;4.442;2023-11-19T16:11:48;11.70;99.90
23609;DHT22;11982;50.810;4.442;2023-11-19T16:14:14;11.70;99.90
23609;DHT22;11982;50.810;4.442;2023-11-19T16:16:40;11.70;99.90